Arbúcies





Hora UTC 13:40
Temperatura 23.8 ºC
Humitat 38.1 %
Pressió 1019.0 hPa
Pluja 0.0 mm
Velocitat vent 0.8 km/h
Direcció vent WSW
Radiació solar 238.4 W/m²

Dades diàries 2021-09-19



Hora UTC (hivern +1h; estiu +2h)
Temperatura (ºC) Humitat (%) Pressió (hPa) Velocitat vent (km/h) Precipitació (mm) Radiació solar (W/m²)
Hora UTC Aire Humitat Pressió Vel. Dir. Vel. Max Dir. Intent. màx 5 min. Rad. Sol.
00:05 17.0 95.1 1017.0 3.5 NNE 8.1 ENE 0.0 0.0
00:10 16.8 95.0 1017.0 6.1 NE 10.9 ENE 0.0 0.0
00:15 16.6 95.0 1018.0 3.9 NE 9.5 ENE 0.0 0.0
00:20 16.5 95.2 1017.0 2.3 N 3.9 NE 0.0 0.0
00:25 16.5 95.3 1018.0 2.5 NNE 5.3 ENE 0.0 0.1
00:30 16.4 95.2 1018.0 1.6 NNW 4.2 N 0.0 0.2
00:35 16.3 95.2 1018.0 1.7 NNW 3.5 NW 0.0 0.3
00:40 16.2 95.3 1018.0 0.9 N 3.5 N 0.0 0.0
00:45 16.3 95.4 1018.0 0.6 N 2.1 N 0.0 0.0
00:50 16.3 95.4 1018.0 0.2 NNW 1.4 NNW 0.0 0.1
00:55 16.3 95.4 1018.0 0.0 N 0.4 NNE 0.0 0.1
01:00 16.3 95.4 1018.0 0.3 NNW 2.1 N 0.0 0.0
01:05 16.4 95.4 1018.0 0.3 NNW 1.1 NW 0.0 0.0
01:10 16.3 95.4 1018.0 0.0 NNW 0.4 NNW 0.0 0.0
01:15 16.3 95.4 1018.0 1.7 NE 3.2 ENE 0.0 0.0
01:20 16.4 95.4 1018.0 1.4 NNE 3.2 NNE 0.0 0.0
01:25 16.4 95.4 1018.0 0.5 N 2.5 NNE 0.0 0.0
01:30 16.3 95.4 1018.0 1.6 N 2.8 NNE 0.0 0.0
01:35 16.3 95.4 1018.0 1.3 NNE 3.5 NE 0.0 0.0
01:40 16.3 95.3 1018.0 0.1 ESE 1.1 ESE 0.0 0.0
01:45 16.3 95.4 1017.0 0.1 E 1.4 E 0.0 0.0
01:50 16.2 95.4 1018.0 0.0 S 0.4 SSE 0.0 0.0
01:55 16.3 95.4 1018.0 0.0 WSW 0.4 WSW 0.0 0.0
02:00 16.2 95.4 1018.0 0.2 SW 2.5 SW 0.0 0.0
02:05 16.3 95.4 1017.0 0.4 SSW 2.8 SSW 0.0 0.0
02:10 16.3 95.4 1018.0 0.0 WNW 0.4 SSE 0.0 0.0
02:15 16.3 95.4 1018.0 0.0 NW 1.1 E 0.0 0.0
02:20 16.3 95.4 1018.0 1.4 SSE 3.2 SE 0.0 0.0
02:25 16.3 95.5 1018.0 1.6 SW 3.2 SSW 0.0 0.0
02:30 16.2 95.4 1018.0 0.6 WSW 2.8 WSW 0.0 0.0
02:35 16.2 95.5 1018.0 0.0 W 0.4 W 0.0 0.0
02:40 16.2 95.5 1018.0 0.0 WNW 0.4 W 0.0 0.0
02:45 16.2 95.5 1018.0 0.0 N 0.7 N 0.0 0.0
02:50 16.1 95.5 1017.0 0.5 W 2.1 W 0.0 0.0
02:55 15.9 95.4 1018.0 2.5 SSW 3.9 SW 0.0 0.0
03:00 15.7 95.3 1018.0 1.6 SW 3.9 W 0.0 0.0
03:05 15.4 95.3 1018.0 4.2 SW 6.7 SW 0.0 0.0
03:10 15.1 95.3 1018.0 3.3 SW 5.6 SW 0.0 0.0
03:15 14.8 95.3 1018.0 4.5 SW 7.8 SSW 0.0 0.0
03:20 14.5 95.2 1018.0 5.6 SW 8.5 SW 0.0 0.0
03:25 14.3 95.4 1018.0 5.4 SW 9.9 SW 0.0 0.0
03:30 14.1 95.3 1018.0 5.2 SW 9.2 SW 0.0 0.0
03:35 13.9 95.3 1018.0 3.1 WSW 7.1 W 0.0 0.0
03:40 13.8 95.4 1018.0 3.6 SW 6.0 SW 0.0 0.0
03:45 13.6 95.3 1018.0 5.1 SW 8.1 SW 0.0 0.0
03:50 13.4 95.3 1018.0 7.2 SW 11.3 SW 0.0 0.0
03:55 13.4 95.4 1019.0 5.0 SW 9.5 SW 0.0 0.0
04:00 13.2 95.3 1018.0 4.2 SW 6.4 SW 0.0 0.0
04:05 13.1 95.3 1018.0 5.1 SW 7.4 SW 0.0 0.0
04:10 13.0 95.3 1018.0 6.1 SW 9.9 SW 0.0 0.0
04:15 12.8 95.3 1018.0 5.9 SW 9.2 SW 0.0 0.0
04:20 12.7 95.3 1018.0 7.1 SW 10.9 SW 0.0 0.0
04:25 12.5 95.3 1019.0 5.2 WSW 7.8 SW 0.0 0.0
04:30 12.4 95.3 1018.0 5.0 SW 8.8 SW 0.0 0.0
04:35 12.3 95.4 1018.0 6.7 SW 11.3 SW 0.0 0.0
04:40 12.2 95.4 1018.0 7.3 SW 11.6 SW 0.0 0.0
04:45 12.1 95.4 1018.0 5.8 SW 9.5 SSW 0.0 0.0
04:50 12.0 95.4 1018.0 3.2 WSW 7.4 WSW 0.0 0.0
04:55 11.9 95.4 1019.0 2.1 W 4.2 WSW 0.0 0.0
05:00 11.8 95.3 1018.0 4.5 SW 9.2 SW 0.0 0.0
05:05 11.8 95.5 1018.0 6.4 SW 11.3 SW 0.0 0.0
05:10 11.9 95.5 1019.0 5.8 SSW 8.8 SW 0.0 0.0
05:15 11.9 95.4 1019.0 2.9 S 6.0 S 0.0 0.0
05:20 12.0 95.3 1019.0 5.6 SSW 9.9 SW 0.0 0.0
05:25 12.0 95.1 1019.0 6.2 SSW 8.5 SW 0.0 0.0
05:30 11.8 94.9 1019.0 7.2 SSW 9.2 SW 0.0 0.3
05:35 11.7 95.0 1019.0 7.4 SW 10.2 SSW 0.0 1.6
05:40 11.6 95.1 1019.0 5.0 SW 7.8 SW 0.0 3.4
05:45 11.4 95.1 1019.0 8.2 SW 10.6 SW 0.0 6.1
05:50 11.4 95.3 1019.0 9.1 SW 13.8 SW 0.0 8.8
05:55 11.4 95.4 1020.0 7.0 SW 13.1 SW 0.0 12.2
06:00 11.4 95.5 1019.0 5.6 WSW 10.9 SW 0.0 20.0
06:05 11.4 95.5 1020.0 5.6 WSW 9.5 WSW 0.0 18.5
06:10 11.5 95.5 1020.0 4.4 SW 6.7 SW 0.0 22.6
06:15 11.6 95.6 1020.0 4.7 SW 7.1 WSW 0.0 43.4
06:20 11.8 95.7 1020.0 6.4 SW 8.5 SSW 0.0 69.8
06:25 12.1 95.8 1021.0 6.9 SSW 9.5 SW 0.0 81.9
06:30 12.3 95.7 1020.0 6.1 SSW 9.2 SW 0.0 112.6
06:35 12.5 95.7 1020.0 6.1 SW 11.3 WSW 0.0 126.3
06:40 12.8 95.5 1020.0 6.4 SW 10.9 SW 0.0 145.1
06:45 13.0 95.0 1020.0 6.4 SSW 8.5 SW 0.0 168.9
06:50 13.2 94.6 1020.0 6.2 SW 8.5 SW 0.0 192.8
06:55 13.4 94.3 1020.0 5.2 SSW 7.8 SSW 0.0 213.5
07:00 13.6 94.1 1020.0 5.2 SSW 7.1 SW 0.0 231.2
07:05 13.8 94.0 1020.0 4.7 SSW 6.0 SSW 0.0 245.8
07:10 14.1 93.7 1019.0 4.0 SW 6.4 SSW 0.0 257.8
07:15 14.2 92.9 1020.0 6.6 SW 11.6 SW 0.0 270.8
07:20 14.5 91.2 1020.0 7.1 SSW 10.2 SSW 0.0 285.7
07:25 14.7 89.7 1020.0 6.8 SSW 10.9 S 0.0 301.4
07:30 15.2 88.5 1020.0 6.1 SSW 8.8 SW 0.0 316.6
07:35 15.3 86.3 1020.0 6.3 SSW 8.8 SSW 0.0 333.9
07:40 15.8 84.7 1020.0 5.0 SSW 8.8 SW 0.0 350.0
07:45 16.2 82.1 1020.0 3.1 S 5.3 SSW 0.0 366.2
07:50 16.3 81.6 1020.0 3.4 SSW 5.3 SW 0.0 354.3
07:55 16.7 80.9 1020.0 5.6 SSW 8.5 SW 0.0 385.2
08:00 16.9 78.4 1020.0 5.6 SSW 8.1 SSW 0.0 416.4
08:05 17.2 74.0 1019.0 5.8 SSW 9.9 SW 0.0 434.6
08:10 17.6 71.9 1020.0 5.3 SSW 9.2 SSW 0.0 449.3
08:15 17.9 70.4 1020.0 5.7 SSW 10.6 WSW 0.0 464.2
08:20 18.3 70.4 1020.0 3.3 SSW 6.0 SSW 0.0 477.3
08:25 18.3 68.4 1021.0 2.7 SSE 6.0 SSE 0.0 490.6
08:30 18.3 66.0 1020.0 1.1 SE 2.8 SE 0.0 502.7
08:35 18.4 65.8 1020.0 1.0 ENE 3.2 E 0.0 515.3
08:40 18.6 64.5 1020.0 1.3 ENE 7.1 ENE 0.0 528.4
08:45 19.1 63.4 1020.0 6.4 ENE 12.0 ENE 0.0 544.6
08:50 19.4 62.9 1020.0 6.4 ENE 11.3 NE 0.0 561.3
08:55 19.3 62.0 1021.0 5.4 NE 9.9 ENE 0.0 575.0
09:00 19.6 60.1 1020.0 5.8 ENE 12.3 ENE 0.0 586.7
09:05 19.5 58.4 1020.0 3.8 E 9.5 ENE 0.0 599.7
09:10 19.6 56.5 1020.0 5.0 ENE 9.9 NNE 0.0 612.6
09:15 19.7 55.2 1020.0 4.7 ENE 11.6 ENE 0.0 622.4
09:20 19.9 55.5 1021.0 4.5 ENE 9.9 ENE 0.0 632.8
09:25 20.0 53.5 1021.0 5.2 ENE 10.9 ENE 0.0 644.5
09:30 20.1 53.0 1020.0 3.6 ENE 6.7 E 0.0 650.2
09:35 20.5 53.7 1020.0 2.2 E 5.3 ESE 0.0 658.2
09:40 20.5 52.3 1020.0 5.7 E 11.6 ENE 0.0 666.9
09:45 20.4 53.7 1020.0 6.3 NE 10.9 E 0.0 676.6
09:50 20.7 53.4 1020.0 4.7 ENE 13.1 NNE 0.0 685.4
09:55 20.7 52.7 1021.0 6.8 ENE 14.8 ENE 0.0 694.7
10:00 20.7 53.0 1020.0 5.9 NE 13.1 ENE 0.0 705.1
10:05 21.1 53.4 1020.0 6.7 NE 13.4 ENE 0.0 714.5
10:10 21.1 52.0 1020.0 6.1 ENE 12.3 ENE 0.0 723.1
10:15 21.2 51.2 1020.0 3.8 NE 7.8 NE 0.0 728.6
10:20 21.3 50.1 1020.0 6.2 ENE 13.1 ENE 0.0 737.5
10:25 21.5 49.7 1021.0 5.5 NE 14.8 NE 0.0 744.7
10:30 21.4 48.6 1020.0 4.6 NNE 10.2 NE 0.0 753.7
10:35 21.5 47.6 1020.0 5.3 ENE 14.5 ENE 0.0 759.5
10:40 21.7 45.0 1020.0 3.3 NE 9.9 NE 0.0 766.8
10:45 22.1 43.2 1020.0 1.5 NE 9.9 ENE 0.0 769.0
10:50 22.2 43.1 1020.0 3.4 ESE 11.3 NE 0.0 776.2
10:55 22.5 41.0 1020.0 2.4 SE 8.5 NNW 0.0 779.6
11:00 22.8 41.1 1020.0 1.4 WSW 7.1 WSW 0.0 782.9
11:05 23.1 39.7 1020.0 3.3 NE 12.0 ENE 0.0 787.2
11:10 23.2 41.0 1020.0 4.9 ENE 16.2 NE 0.0 790.1
11:15 23.2 39.1 1020.0 3.3 SSE 8.8 SSE 0.0 792.8
11:20 23.1 40.7 1020.0 3.5 NNE 12.0 NE 0.0 794.6
11:25 23.3 40.7 1020.0 7.4 NNE 15.5 NNE 0.0 799.1
11:30 23.1 39.7 1020.0 6.6 NNE 12.3 N 0.0 801.0
11:35 23.3 40.2 1020.0 5.8 NE 18.0 ENE 0.0 802.0
11:40 23.6 38.2 1020.0 6.8 ENE 15.9 NE 0.0 806.0
11:45 23.6 37.9 1020.0 7.1 NNE 16.6 ENE 0.0 807.0
11:50 23.4 38.2 1020.0 7.4 N 15.2 NNE 0.0 808.0
11:55 23.4 38.8 1020.0 5.1 NNE 15.2 NNW 0.0 809.0
12:00 24.0 37.2 1019.0 6.8 NE 14.5 ENE 0.0 811.0
12:05 23.9 34.8 1019.0 7.7 NE 14.1 NE 0.0 819.0
12:10 23.7 35.9 1019.0 8.3 NE 18.0 NE 0.0 805.0
12:15 23.7 36.0 1019.0 7.9 NE 14.5 ENE 0.0 323.4
12:20 23.3 37.2 1019.0 7.2 NE 13.4 ENE 0.0 454.7
12:25 23.3 36.7 1020.0 3.7 NNE 9.5 NE 0.0 363.1
12:30 23.6 38.3 1019.0 3.1 ESE 13.8 NE 0.0 366.0
12:35 23.7 38.5 1019.0 7.1 SSW 12.7 SW 0.0 513.5
12:40 23.8 37.5 1019.0 6.1 SSW 10.6 SSW 0.0 427.6
12:45 23.6 37.8 1019.0 4.0 SW 8.1 SSW 0.0 197.0
12:50 23.4 40.0 1019.0 3.7 WSW 6.4 WSW 0.0 485.5
12:55 23.8 38.8 1020.0 2.2 NW 6.4 NNW 0.0 820.0
13:00 24.3 36.4 1019.0 3.7 N 8.8 NNW 0.0 506.1
13:05 23.9 37.6 1019.0 5.8 NNE 12.0 ENE 0.0 500.5
13:10 24.0 37.0 1019.0 3.4 ESE 8.8 NE 0.0 363.0
13:15 23.8 36.1 1019.0 2.3 ESE 9.2 ESE 0.0 191.5
13:20 23.6 36.6 1019.0 3.7 S 9.2 SE 0.0 215.3
13:25 23.5 37.8 1020.0 3.5 S 7.4 S 0.0 590.6
13:30 23.9 35.8 1019.0 2.3 SSE 6.7 S 0.0 236.1
13:35 23.8 36.4 1019.0 3.0 SSW 5.6 S 0.0 264.6
13:40 23.8 38.1 1019.0 0.8 WSW 3.2 WSW 0.0 238.4
Màxima 24.3 95.8 1021.0 9.1 SW 18.0 NE 0.0 820.0
Mínima 11.4 34.8 1017.0
Total 0.0